Etusivu
METAR-TAF:

METAR-TAF

Lentoasemat :

Berlevåg, Norja

Leveyspiiri: 70-52N, Pituuspiiri: 029-02E, korkeus merenpinnasta: 1 m

Tämänhetkinen sää

Tämä raportti tehtiin 3 tuntia ja 26 minuuttia sitten, kello 21.50 UTC
Tuuli 16 kn pohjoisesta/koillisesta
Lämpötila -6°C
Kosteus 68%
Ilmanpaine 998 hPa
Näkyvyys: 5000 m
Hajonneita pilviä 3300 ft:n korkeudessa
heikkoja lumikuuroja

METAR: ENBV 192150Z 03016KT 5000 -SHSN BKN033 M06/M11 Q0998

Aika: 02:16 (01:16 UTC)

Sääennuste

Tämä raportti tehtiin 8 tuntia ja 16 minuuttia sitten, kello 17.00 UTC
Ennuste voimassa 19. päivästä klo 18 UTC - 19. päivään klo 22 UTC
Tuuli 15 kn koillisesta
Näkyvyys 10 km tai enemmän
Muutamia pilviä 1200 ft:n korkeudessa, Cumulonimbus.
Hajonneita pilviä 3000 ft:n korkeudessa
Ajoittain
19. päivästä klo 18 UTC - 19. päivään klo 22 UTC
Näkyvyys: 1200 m
800 ft:n korkeudessa
lumikuuroja

TAF: ENBV 191700Z 1918/1922 05015KT 9999 FEW012CB BKN030 TEMPO 1918/1922 1200 SHSN VV008

Säähavainnot ja -ennusteet yli 4000 lentoasemalta (METAR- ja TAF-raportit).

Käytössä olevat sääasemat on merkitty karttaan keltaisilla ja punaisilla pisteillä.

Aseta hiiri pisteen päälle nähdäksesi sääaseman nimen.

Klikkaa sitten nähdäksesi säähavainnot ja -ennusteet.

Kartan vaihtaminen: klikkaa mustalla rastilla varustettuja vihreitä pisteitä, niin voit zoomata sisään; viivalla varustettua vihreää pistettä, niin voit zoomata ulos tai vihreitä nuolia, niin pääset viereisille kartoille.


METAR-TAF: